createdAt,value
2022-09-23T00:01:57.181Z,10.35
2022-09-23T00:06:01.704Z,10.47
2022-09-23T00:10:05.197Z,10.52
2022-09-23T00:14:08.164Z,10.48
2022-09-23T00:18:12.399Z,10.50
2022-09-23T00:22:15.374Z,10.51
2022-09-23T00:26:19.872Z,10.51
2022-09-23T00:30:23.814Z,10.53
2022-09-23T00:34:28.218Z,10.69
2022-09-23T00:38:31.122Z,10.58
2022-09-23T00:42:34.142Z,10.42
2022-09-23T00:46:44.316Z,10.30
2022-09-23T00:50:54.748Z,10.26
2022-09-23T00:54:59.813Z,10.13
2022-09-23T00:59:03.882Z,9.99
2022-09-23T01:03:08.250Z,9.91
2022-09-23T01:07:13.962Z,9.84
2022-09-23T01:11:30.537Z,9.72
2022-09-23T01:15:41.010Z,9.69
2022-09-23T01:20:03.615Z,9.63
2022-09-23T01:24:39.960Z,9.53
2022-09-23T01:29:03.542Z,9.51
2022-09-23T01:33:14.334Z,9.42
2022-09-23T01:37:28.826Z,9.41
2022-09-23T01:41:47.841Z,9.38
2022-09-23T01:45:54.781Z,9.35
2022-09-23T01:50:24.585Z,9.25
2022-09-23T01:54:33.449Z,9.29
2022-09-23T01:58:43.037Z,9.21
2022-09-23T02:02:51.820Z,9.19
2022-09-23T02:07:01.084Z,9.15
2022-09-23T02:11:08.238Z,9.14
2022-09-23T02:15:15.457Z,9.08
2022-09-23T02:19:25.377Z,9.14
2022-09-23T02:23:35.296Z,9.10
2022-09-23T02:27:43.678Z,9.00
2022-09-23T02:31:55.056Z,8.97
2022-09-23T02:36:06.751Z,8.97
2022-09-23T02:40:19.129Z,8.92
2022-09-23T02:44:22.895Z,8.81
2022-09-23T02:48:31.254Z,8.68
2022-09-23T02:52:38.187Z,8.63
2022-09-23T02:56:43.202Z,8.46
2022-09-23T03:00:55.699Z,8.46
2022-09-23T03:05:08.414Z,8.47
2022-09-23T03:09:16.056Z,8.32
2022-09-23T03:13:31.311Z,8.39
2022-09-23T03:17:40.476Z,8.30
2022-09-23T03:21:47.581Z,8.30
2022-09-23T03:25:54.146Z,8.26
2022-09-23T03:29:58.815Z,8.21
2022-09-23T03:34:04.598Z,8.18
2022-09-23T03:38:17.481Z,8.17
2022-09-23T03:42:26.087Z,8.15
2022-09-23T03:46:30.636Z,8.28
2022-09-23T03:50:35.482Z,8.20
2022-09-23T03:54:38.454Z,8.10
2022-09-23T03:58:41.365Z,8.12
2022-09-23T04:02:46.171Z,8.06
2022-09-23T04:06:49.124Z,8.01
2022-09-23T04:10:54.871Z,8.00
2022-09-23T04:14:57.757Z,8.04
2022-09-23T04:19:01.840Z,8.16
2022-09-23T04:23:04.617Z,8.23
2022-09-23T04:27:07.396Z,8.21
2022-09-23T04:31:10.976Z,8.24
2022-09-23T04:35:15.568Z,8.23
2022-09-23T04:39:19.059Z,8.11
2022-09-23T04:43:23.546Z,7.90
2022-09-23T04:47:26.553Z,7.90
2022-09-23T04:51:30.964Z,7.78
2022-09-23T04:55:34.396Z,7.79
2022-09-23T04:59:37.581Z,7.79
2022-09-23T05:03:41.379Z,7.73
2022-09-23T05:07:45.481Z,7.63
2022-09-23T05:11:48.808Z,7.43
2022-09-23T05:15:57.684Z,7.56
2022-09-23T05:20:00.815Z,7.67
2022-09-23T05:24:09.193Z,7.64
2022-09-23T05:28:12.552Z,7.69
2022-09-23T05:32:15.659Z,7.85
2022-09-23T05:36:19.146Z,7.90
2022-09-23T05:40:23.306Z,7.96
2022-09-23T05:44:26.169Z,8.07
2022-09-23T05:48:31.219Z,8.15
2022-09-23T05:52:34.919Z,8.21
2022-09-23T05:56:39.920Z,8.33
2022-09-23T06:00:44.626Z,8.53
2022-09-23T06:04:47.470Z,8.71
2022-09-23T06:08:50.229Z,8.85
2022-09-23T06:12:54.398Z,8.97
2022-09-23T06:16:57.332Z,9.17
2022-09-23T06:21:02.767Z,9.41
2022-09-23T06:25:06.584Z,9.51
2022-09-23T06:29:12.819Z,9.76
2022-09-23T06:33:17.488Z,9.97
2022-09-23T06:37:21.691Z,10.22
2022-09-23T06:41:24.648Z,10.41
2022-09-23T06:45:29.639Z,10.56
2022-09-23T06:49:32.466Z,10.80
2022-09-23T06:53:35.910Z,10.99
2022-09-23T06:57:39.853Z,11.25
2022-09-23T07:01:45.541Z,11.54
2022-09-23T07:05:48.413Z,11.48
2022-09-23T07:09:51.513Z,11.59
2022-09-23T07:13:54.323Z,11.59
2022-09-23T07:17:58.694Z,11.77
2022-09-23T07:22:01.900Z,11.91
2022-09-23T07:26:05.420Z,11.98
2022-09-23T07:30:17.639Z,12.33
2022-09-23T07:34:25.824Z,12.32
2022-09-23T07:38:30.484Z,12.52
2022-09-23T07:42:33.455Z,12.92
2022-09-23T07:46:37.761Z,13.16
2022-09-23T07:50:42.371Z,13.70
2022-09-23T07:54:48.363Z,14.47
2022-09-23T07:59:00.541Z,14.81
2022-09-23T08:03:03.756Z,14.73
2022-09-23T08:07:09.222Z,14.45
2022-09-23T08:11:14.369Z,14.68
2022-09-23T08:15:18.437Z,14.57
2022-09-23T08:19:21.496Z,14.60
2022-09-23T08:23:25.985Z,14.66
2022-09-23T08:27:29.413Z,14.72
2022-09-23T08:31:32.682Z,14.97
2022-09-23T08:35:35.652Z,15.40
2022-09-23T08:39:39.785Z,15.73
2022-09-23T08:43:48.465Z,15.89
2022-09-23T08:47:56.537Z,16.94
2022-09-23T08:52:06.935Z,17.09
2022-09-23T08:56:16.263Z,17.91
2022-09-23T09:00:22.829Z,18.78
2022-09-23T09:04:29.259Z,19.58
2022-09-23T09:08:36.293Z,18.37
2022-09-23T09:12:44.661Z,16.92
2022-09-23T09:17:08.183Z,17.36
2022-09-23T09:21:14.251Z,17.02
2022-09-23T09:25:25.707Z,17.20
2022-09-23T09:29:36.631Z,17.98
2022-09-23T09:33:48.443Z,18.66
2022-09-23T09:37:53.487Z,18.86
2022-09-23T09:41:58.617Z,18.64
2022-09-23T09:46:17.168Z,18.64
2022-09-23T09:50:44.445Z,19.22
2022-09-23T09:54:49.580Z,19.25
2022-09-23T09:58:56.323Z,19.04
2022-09-23T10:03:04.247Z,19.00
2022-09-23T10:07:12.639Z,19.71
2022-09-23T10:11:17.531Z,19.67
2022-09-23T10:15:33.353Z,20.70
2022-09-23T10:19:45.083Z,20.93
2022-09-23T10:23:52.611Z,19.32
2022-09-23T10:27:55.750Z,20.41
2022-09-23T10:32:27.762Z,21.16
2022-09-23T10:36:34.002Z,21.97
2022-09-23T10:40:57.157Z,22.73
2022-09-23T10:45:28.079Z,22.60
2022-09-23T10:49:56.492Z,23.19
2022-09-23T10:54:09.264Z,21.32
2022-09-23T10:58:30.857Z,21.61
2022-09-23T11:02:50.486Z,21.22
2022-09-23T11:07:14.153Z,22.66
2022-09-23T11:11:34.925Z,22.34
2022-09-23T11:15:51.667Z,20.35
2022-09-23T11:20:34.012Z,21.61
2022-09-23T11:24:52.213Z,20.27
2022-09-23T11:29:14.170Z,19.94
2022-09-23T11:33:31.180Z,20.39
2022-09-23T11:37:38.864Z,20.17
2022-09-23T11:41:44.384Z,20.17
2022-09-23T11:45:56.682Z,20.05
2022-09-23T11:50:03.905Z,20.02
2022-09-23T11:54:19.750Z,19.64
2022-09-23T11:58:27.635Z,20.05
2022-09-23T12:02:42.753Z,19.83
2022-09-23T12:06:50.137Z,19.96
2022-09-23T12:11:00.739Z,19.13
2022-09-23T12:15:07.863Z,19.41
2022-09-23T12:19:22.391Z,19.64
2022-09-23T12:23:39.244Z,19.87
2022-09-23T12:27:45.733Z,19.95
2022-09-23T12:31:49.919Z,19.32
2022-09-23T12:36:09.165Z,19.56
2022-09-23T12:40:22.323Z,19.72
2022-09-23T12:44:36.868Z,19.08
2022-09-23T12:48:48.170Z,18.79
2022-09-23T12:52:52.719Z,18.51
2022-09-23T12:57:01.643Z,18.79
2022-09-23T13:01:09.139Z,18.83
2022-09-23T13:05:39.067Z,18.78
2022-09-23T13:09:46.671Z,19.06
2022-09-23T13:13:51.216Z,18.91
2022-09-23T13:17:54.080Z,18.83
2022-09-23T13:22:09.098Z,18.92
2022-09-23T13:26:14.025Z,18.99
2022-09-23T13:30:25.740Z,19.01
2022-09-23T13:34:34.726Z,19.16
2022-09-23T13:38:37.617Z,19.21
2022-09-23T13:42:42.139Z,19.31
2022-09-23T13:46:48.833Z,19.07
2022-09-23T13:50:57.640Z,18.56
2022-09-23T13:55:00.634Z,18.70
2022-09-23T13:59:25.302Z,18.58
2022-09-23T14:03:36.228Z,18.64
2022-09-23T14:07:39.969Z,18.79
2022-09-23T14:11:43.117Z,18.82
2022-09-23T14:15:49.893Z,18.63
2022-09-23T14:19:53.096Z,18.50
2022-09-23T14:23:56.759Z,18.39
2022-09-23T14:28:00.686Z,18.23
2022-09-23T14:32:11.657Z,18.14
2022-09-23T14:36:31.345Z,18.24
2022-09-23T14:40:36.597Z,18.22
2022-09-23T14:44:40.681Z,18.19
2022-09-23T14:48:45.517Z,18.15
2022-09-23T14:52:50.910Z,18.22
2022-09-23T14:56:55.621Z,18.25
2022-09-23T15:01:01.184Z,18.29
2022-09-23T15:05:21.331Z,18.01
2022-09-23T15:09:26.554Z,18.09
2022-09-23T15:13:33.559Z,17.93
2022-09-23T15:17:38.615Z,17.92
2022-09-23T15:21:47.089Z,17.84
2022-09-23T15:25:52.558Z,17.77
2022-09-23T15:30:04.061Z,17.79
2022-09-23T15:34:07.552Z,17.76
2022-09-23T15:38:11.947Z,17.75
2022-09-23T15:42:14.832Z,17.66
2022-09-23T15:46:22.389Z,17.73
2022-09-23T15:50:25.352Z,17.73
2022-09-23T15:54:30.216Z,17.68
2022-09-23T15:58:33.465Z,17.57
2022-09-23T16:02:36.570Z,17.54
2022-09-23T16:06:39.829Z,17.41
2022-09-23T16:10:44.869Z,17.29
2022-09-23T16:14:47.715Z,17.28
2022-09-23T16:18:51.680Z,17.22
2022-09-23T16:22:58.092Z,17.17
2022-09-23T16:27:04.107Z,17.11
2022-09-23T16:31:07.345Z,16.98
2022-09-23T16:35:10.909Z,16.90
2022-09-23T16:39:14.866Z,16.87
2022-09-23T16:43:19.840Z,16.80
2022-09-23T16:47:22.739Z,16.80
2022-09-23T16:51:33.539Z,16.77
2022-09-23T16:55:36.521Z,16.70
2022-09-23T16:59:58.471Z,16.65
2022-09-23T17:04:02.593Z,16.61
2022-09-23T17:08:07.803Z,16.59
2022-09-23T17:12:15.207Z,16.52
2022-09-23T17:16:27.125Z,16.42
2022-09-23T17:20:30.164Z,16.35
2022-09-23T17:24:34.999Z,16.26
2022-09-23T17:28:38.250Z,16.16
2022-09-23T17:32:42.942Z,16.08
2022-09-23T17:36:46.187Z,16.00
2022-09-23T17:40:52.981Z,15.92
2022-09-23T17:44:56.989Z,15.76
2022-09-23T17:49:01.267Z,15.55
2022-09-23T17:53:05.463Z,15.26
2022-09-23T17:57:08.660Z,15.26
2022-09-23T18:01:14.790Z,15.11
2022-09-23T18:05:19.351Z,15.20
2022-09-23T18:09:22.318Z,15.19
2022-09-23T18:13:25.321Z,15.14
2022-09-23T18:17:28.270Z,15.14
2022-09-23T18:21:35.456Z,15.10
2022-09-23T18:25:39.775Z,14.95
2022-09-23T18:29:43.075Z,14.82
2022-09-23T18:33:50.571Z,14.76
2022-09-23T18:37:56.201Z,14.69
2022-09-23T18:41:59.010Z,14.77
2022-09-23T18:46:03.512Z,14.88
2022-09-23T18:50:26.319Z,14.95
2022-09-23T18:54:30.695Z,15.12
2022-09-23T18:58:33.795Z,15.18
2022-09-23T19:02:36.583Z,15.19
2022-09-23T19:06:39.662Z,15.27
2022-09-23T19:10:43.930Z,15.26
2022-09-23T19:14:47.698Z,15.22
2022-09-23T19:18:51.295Z,15.18
2022-09-23T19:22:54.327Z,15.17
2022-09-23T19:26:58.937Z,15.15
2022-09-23T19:31:10.972Z,15.17
2022-09-23T19:35:16.184Z,15.10
2022-09-23T19:39:21.220Z,15.10
2022-09-23T19:43:25.806Z,15.03
2022-09-23T19:47:29.039Z,14.89
2022-09-23T19:51:34.184Z,14.81
2022-09-23T19:55:37.734Z,14.62
2022-09-23T19:59:42.295Z,14.51
2022-09-23T20:03:45.289Z,14.55
2022-09-23T20:07:48.143Z,14.52
2022-09-23T20:11:51.204Z,14.39
2022-09-23T20:15:55.447Z,14.48
2022-09-23T20:19:58.475Z,14.52
2022-09-23T20:24:01.463Z,14.57
2022-09-23T20:28:04.467Z,14.54
2022-09-23T20:32:09.477Z,14.57
2022-09-23T20:36:13.404Z,14.53
2022-09-23T20:40:16.215Z,14.58
2022-09-23T20:44:19.610Z,14.50
2022-09-23T20:48:24.927Z,14.44
2022-09-23T20:52:28.043Z,14.50
2022-09-23T20:56:31.095Z,14.52
2022-09-23T21:00:34.456Z,14.53
2022-09-23T21:04:38.586Z,14.53
2022-09-23T21:08:41.977Z,14.53
2022-09-23T21:12:46.019Z,14.32
2022-09-23T21:16:49.029Z,14.34
2022-09-23T21:20:57.208Z,14.48
2022-09-23T21:29:22.959Z,14.55
2022-09-23T21:33:25.724Z,14.55
2022-09-23T21:37:29.873Z,14.46
2022-09-23T21:41:33.139Z,14.38
2022-09-23T21:45:36.055Z,14.32
2022-09-23T21:49:39.137Z,14.27
2022-09-23T21:53:44.297Z,14.17
2022-09-23T21:57:47.449Z,14.06
2022-09-23T22:01:54.033Z,14.05
2022-09-23T22:06:05.116Z,14.02
2022-09-23T22:10:10.311Z,13.92
2022-09-23T22:14:14.194Z,13.95
2022-09-23T22:18:19.515Z,13.90
2022-09-23T22:22:22.545Z,13.79
2022-09-23T22:26:26.672Z,13.76
2022-09-23T22:30:47.101Z,13.83
2022-09-23T22:34:51.675Z,13.87
2022-09-23T22:38:59.210Z,13.94
2022-09-23T22:43:03.876Z,13.94
2022-09-23T22:47:06.883Z,13.89
2022-09-23T22:51:09.926Z,13.85
2022-09-23T22:55:15.413Z,13.80
2022-09-23T22:59:19.670Z,13.75
2022-09-23T23:03:24.155Z,13.70
2022-09-23T23:07:27.608Z,13.64
2022-09-23T23:11:30.651Z,13.55
2022-09-23T23:15:34.849Z,13.59
2022-09-23T23:19:37.754Z,13.68
2022-09-23T23:23:41.605Z,13.68
2022-09-23T23:27:44.450Z,13.66
2022-09-23T23:31:49.456Z,13.66
2022-09-23T23:35:52.344Z,13.65
2022-09-23T23:39:55.475Z,13.61
2022-09-23T23:44:00.876Z,13.57
2022-09-23T23:48:05.250Z,13.58
2022-09-23T23:52:08.139Z,13.59
2022-09-23T23:56:12.833Z,13.55
